Time;durP1;ratioP1;P1;durP2;ratioP2;P2;SDS_P1;SDS_P2;PMS_P1;PMS_P2;Temp;Humidity;BMP_temperature;BMP_pressure;BME280_temperature;BME280_humidity;BME280_pressure;Samples;Min_cycle;Max_cycle;Signal;HPM_P1;HPM_P2
2021/12/29 00:00:21;;;;;;;3.25;3.00;;;3.30;99.90;;;;;;7418426;19;20324;-85
2021/12/29 00:02:47;;;;;;;5.78;3.92;;;3.10;99.90;;;;;;7420638;19;20292;-87
2021/12/29 00:05:13;;;;;;;5.32;3.95;;;3.20;99.90;;;;;;7428342;19;20304;-85
2021/12/29 00:07:39;;;;;;;4.30;3.80;;;3.30;99.90;;;;;;7427618;19;20312;-84
2021/12/29 00:10:05;;;;;;;4.75;4.13;;;3.20;99.90;;;;;;7425094;19;20341;-86
2021/12/29 00:12:38;;;;;;;3.63;3.20;;;3.30;99.90;;;;;;7427157;19;20328;-87
2021/12/29 00:15:05;;;;;;;4.38;3.90;;;3.40;99.90;;;;;;7423580;19;20348;-85
2021/12/29 00:17:31;;;;;;;5.28;3.97;;;3.30;99.90;;;;;;7424303;19;20315;-85
2021/12/29 00:19:57;;;;;;;3.78;3.47;;;3.30;99.90;;;;;;7420612;19;20308;-87
2021/12/29 00:22:22;;;;;;;4.73;4.10;;;3.40;99.90;;;;;;7424566;19;20368;-85
2021/12/29 00:24:48;;;;;;;3.65;3.35;;;3.30;99.90;;;;;;7412895;19;20325;-84
2021/12/29 00:27:14;;;;;;;4.50;3.65;;;3.30;99.90;;;;;;7426369;19;20285;-86
2021/12/29 00:29:40;;;;;;;4.47;3.67;;;3.30;99.90;;;;;;7421381;19;20348;-83
2021/12/29 00:32:35;;;;;;;4.55;3.95;;;3.30;99.90;;;;;;7321283;19;2004391;-85
2021/12/29 00:35:38;;;;;;;3.80;3.47;;;3.30;99.90;;;;;;7314281;19;2004596;-84
2021/12/29 00:38:23;;;;;;;3.55;3.25;;;3.30;99.90;;;;;;7311578;19;2004352;-85
2021/12/29 00:41:15;;;;;;;3.35;2.85;;;3.40;99.90;;;;;;7312523;19;2004391;-86
2021/12/29 00:44:04;;;;;;;3.35;3.05;;;3.40;99.90;;;;;;7415870;19;20320;-85
2021/12/29 00:46:33;;;;;;;4.82;3.65;;;3.40;99.90;;;;;;7414522;19;20301;-84
2021/12/29 00:48:59;;;;;;;3.92;3.50;;;3.50;99.90;;;;;;7416912;19;20313;-85
2021/12/29 00:51:25;;;;;;;3.20;2.90;;;3.40;99.90;;;;;;7415107;19;20327;-83
2021/12/29 00:53:51;;;;;;;4.00;3.60;;;3.50;99.90;;;;;;7415675;19;20356;-84
2021/12/29 00:56:17;;;;;;;3.28;2.97;;;3.40;99.90;;;;;;7412097;19;20724;-82
2021/12/29 00:58:44;;;;;;;3.83;3.22;;;3.40;99.90;;;;;;7413512;19;20301;-82
2021/12/29 01:01:09;;;;;;;3.20;2.90;;;3.40;99.90;;;;;;7414520;19;20303;-82
2021/12/29 01:03:36;;;;;;;3.47;3.17;;;3.50;99.90;;;;;;7416624;19;21221;-84
2021/12/29 01:06:02;;;;;;;3.72;3.42;;;3.40;99.90;;;;;;7414527;19;20320;-83
2021/12/29 01:08:28;;;;;;;3.72;3.28;;;3.50;99.90;;;;;;7414986;19;20359;-84
2021/12/29 01:10:53;;;;;;;4.40;4.00;;;3.40;99.90;;;;;;7413850;19;20329;-87
2021/12/29 01:13:29;;;;;;;3.90;3.47;;;3.40;99.90;;;;;;7417980;19;20309;-84
2021/12/29 01:18:37;;;;;;;3.90;3.60;;;3.40;99.90;;;;;;7416187;19;20931;-86
2021/12/29 01:21:03;;;;;;;3.40;3.10;;;3.40;99.90;;;;;;7415997;19;20312;-83
2021/12/29 01:23:29;;;;;;;3.90;3.50;;;3.40;99.90;;;;;;7401213;19;20300;-84
2021/12/29 01:25:54;;;;;;;4.00;3.50;;;3.40;99.90;;;;;;7419670;19;20324;-87
2021/12/29 01:28:20;;;;;;;3.47;3.17;;;3.30;99.90;;;;;;7418101;19;20304;-85
2021/12/29 01:30:46;;;;;;;4.28;3.83;;;3.30;99.90;;;;;;7418678;19;20389;-84
2021/12/29 01:33:12;;;;;;;4.43;4.03;;;3.40;99.90;;;;;;7416764;19;20305;-85
2021/12/29 01:35:38;;;;;;;4.03;3.63;;;3.30;99.90;;;;;;7417405;19;20303;-84
2021/12/29 01:38:05;;;;;;;5.45;4.05;;;3.40;99.90;;;;;;7417003;19;20355;-86
2021/12/29 01:40:31;;;;;;;4.60;3.60;;;3.30;99.90;;;;;;7415618;19;20332;-82
2021/12/29 01:42:57;;;;;;;4.00;3.60;;;3.40;99.90;;;;;;7415451;19;20329;-84
2021/12/29 01:45:23;;;;;;;4.20;3.80;;;3.40;99.90;;;;;;7418560;19;20355;-83
2021/12/29 01:47:49;;;;;;;3.88;3.58;;;3.40;99.90;;;;;;7416358;19;20304;-84
2021/12/29 01:50:15;;;;;;;3.93;3.53;;;3.30;99.90;;;;;;7414915;19;20293;-82
2021/12/29 01:52:41;;;;;;;4.25;3.78;;;3.30;99.90;;;;;;7418587;19;20422;-86
2021/12/29 01:55:10;;;;;;;3.75;3.35;;;3.30;99.90;;;;;;7422600;19;20361;-86
2021/12/29 01:57:36;;;;;;;4.25;3.40;;;3.30;99.90;;;;;;7422928;19;20312;-85
2021/12/29 02:00:03;;;;;;;4.15;3.60;;;3.30;99.90;;;;;;7422350;19;20305;-83
2021/12/29 02:02:37;;;;;;;4.20;3.80;;;3.40;99.90;;;;;;7421732;19;20344;-86
2021/12/29 02:05:03;;;;;;;4.13;3.40;;;3.30;99.90;;;;;;7419071;19;20312;-86
2021/12/29 02:07:29;;;;;;;4.03;3.40;;;3.30;99.90;;;;;;7417969;19;20328;-86
2021/12/29 02:09:54;;;;;;;4.55;3.58;;;3.30;99.90;;;;;;7400425;19;20317;-85
2021/12/29 02:12:20;;;;;;;5.33;4.20;;;3.20;99.90;;;;;;7417411;19;20320;-85
2021/12/29 02:14:46;;;;;;;3.88;3.42;;;3.20;99.90;;;;;;7414832;19;20367;-83
2021/12/29 02:17:13;;;;;;;4.10;3.42;;;3.20;99.90;;;;;;7413818;19;20328;-82
2021/12/29 02:19:45;;;;;;;3.90;3.60;;;3.30;99.90;;;;;;7416607;19;20333;-85
2021/12/29 02:22:30;;;;;;;3.35;3.05;;;3.20;99.90;;;;;;7418928;19;20341;-83
2021/12/29 02:25:08;;;;;;;4.13;3.38;;;3.20;99.90;;;;;;7317949;19;2008271;-85
2021/12/29 02:27:37;;;;;;;5.20;3.58;;;3.10;99.90;;;;;;7312830;19;2004586;-85
2021/12/29 02:30:03;;;;;;;3.38;3.08;;;3.10;99.90;;;;;;7412713;19;20487;-84
2021/12/29 02:32:29;;;;;;;3.37;3.07;;;3.10;99.90;;;;;;7416977;19;20363;-83
2021/12/29 02:34:55;;;;;;;3.85;2.83;;;3.10;99.90;;;;;;7418882;19;20368;-89
2021/12/29 02:37:22;;;;;;;3.38;3.10;;;3.10;99.90;;;;;;7419204;19;20409;-83
2021/12/29 02:39:49;;;;;;;4.22;3.83;;;3.10;99.90;;;;;;7417353;19;20329;-81
2021/12/29 02:42:15;;;;;;;4.13;3.78;;;3.10;99.90;;;;;;7418975;19;20308;-83
2021/12/29 02:44:42;;;;;;;3.80;3.50;;;3.10;99.90;;;;;;7416601;19;20329;-85
2021/12/29 02:47:08;;;;;;;3.30;3.00;;;3.00;99.90;;;;;;7417868;19;20320;-86
2021/12/29 02:49:34;;;;;;;4.45;3.70;;;3.00;99.90;;;;;;7421350;19;20293;-85
2021/12/29 02:52:00;;;;;;;4.40;2.97;;;2.90;99.90;;;;;;7416767;19;20356;-85
2021/12/29 02:54:25;;;;;;;4.32;3.78;;;2.80;99.90;;;;;;7418817;19;20321;-87
2021/12/29 02:56:54;;;;;;;3.63;3.10;;;2.80;99.90;;;;;;7419402;19;20313;-87
2021/12/29 02:59:20;;;;;;;5.38;3.63;;;2.80;99.90;;;;;;7417660;19;20313;-86
2021/12/29 03:01:46;;;;;;;4.00;3.20;;;2.70;99.90;;;;;;7420216;19;20357;-85
2021/12/29 03:04:12;;;;;;;3.90;3.22;;;2.60;99.90;;;;;;7173366;19;4697254;-85
2021/12/29 03:06:38;;;;;;;4.03;3.70;;;2.60;99.90;;;;;;7419049;19;20360;-84
2021/12/29 03:09:04;;;;;;;4.05;3.65;;;2.60;99.90;;;;;;7416929;19;20304;-84
2021/12/29 03:11:30;;;;;;;3.85;3.38;;;2.50;99.90;;;;;;7418151;19;20333;-83
2021/12/29 03:13:55;;;;;;;3.92;2.85;;;2.50;99.90;;;;;;7419229;19;20316;-83
2021/12/29 03:16:21;;;;;;;2.97;2.70;;;2.40;99.90;;;;;;7420080;19;20348;-84
2021/12/29 03:18:47;;;;;;;3.15;2.85;;;2.40;99.90;;;;;;7416691;19;20871;-84
2021/12/29 03:21:13;;;;;;;5.53;3.43;;;2.40;99.90;;;;;;7411256;19;20301;-81
2021/12/29 03:23:39;;;;;;;3.67;3.20;;;2.30;99.90;;;;;;7416469;19;20308;-81
2021/12/29 03:26:06;;;;;;;3.10;2.80;;;2.20;99.90;;;;;;7413545;19;20309;-82
2021/12/29 03:28:32;;;;;;;3.42;3.13;;;2.20;99.90;;;;;;7408151;19;20328;-85
2021/12/29 03:30:59;;;;;;;3.72;3.25;;;2.20;99.90;;;;;;7412968;19;20343;-85
2021/12/29 03:33:28;;;;;;;3.37;3.07;;;2.20;99.90;;;;;;7417059;19;20333;-85
2021/12/29 03:36:02;;;;;;;3.10;2.80;;;2.20;99.90;;;;;;7414046;19;20902;-86
2021/12/29 03:38:30;;;;;;;3.58;3.25;;;2.20;99.90;;;;;;7416496;19;20348;-82
2021/12/29 03:40:56;;;;;;;3.90;3.50;;;2.20;99.90;;;;;;7412187;19;20456;-82
2021/12/29 03:43:22;;;;;;;3.63;2.97;;;2.20;99.90;;;;;;7417945;19;20312;-83
2021/12/29 03:45:50;;;;;;;3.85;3.45;;;2.20;99.90;;;;;;7416675;19;20285;-85
2021/12/29 03:48:16;;;;;;;4.00;3.47;;;2.20;99.90;;;;;;7419441;19;20355;-88
2021/12/29 03:50:42;;;;;;;3.37;3.07;;;2.20;99.90;;;;;;7419663;19;20329;-87
2021/12/29 03:53:08;;;;;;;3.42;3.13;;;2.20;99.90;;;;;;7420051;19;20297;-85
2021/12/29 03:55:33;;;;;;;3.47;3.17;;;2.20;99.90;;;;;;7404803;19;20304;-83
2021/12/29 03:57:59;;;;;;;3.97;3.28;;;2.20;99.90;;;;;;7415110;19;20288;-85
2021/12/29 04:00:25;;;;;;;4.80;3.20;;;2.20;99.90;;;;;;7413696;19;20338;-84
2021/12/29 04:02:51;;;;;;;3.77;3.27;;;2.20;99.90;;;;;;7418941;19;20312;-83
2021/12/29 04:05:21;;;;;;;3.67;3.38;;;2.20;99.90;;;;;;7417157;19;20309;-83
2021/12/29 04:07:47;;;;;;;4.55;3.80;;;2.10;99.90;;;;;;7418146;19;20296;-82
2021/12/29 04:10:13;;;;;;;5.10;3.60;;;2.10;99.90;;;;;;7412106;19;20332;-83
2021/12/29 04:12:39;;;;;;;4.30;3.30;;;2.00;99.90;;;;;;7419271;19;20304;-83
2021/12/29 04:15:08;;;;;;;3.72;3.42;;;2.00;99.90;;;;;;7418741;19;20312;-82
2021/12/29 04:17:37;;;;;;;3.40;3.10;;;2.10;99.90;;;;;;7417930;19;20321;-85
2021/12/29 04:22:50;;;;;;;3.80;3.40;;;2.10;99.90;;;;;;7418923;19;20389;-84
2021/12/29 04:25:18;;;;;;;3.03;2.70;;;2.20;99.90;;;;;;7419950;19;20312;-85
2021/12/29 04:27:46;;;;;;;3.80;3.15;;;2.20;99.90;;;;;;7419837;19;20296;-90
2021/12/29 04:30:12;;;;;;;4.10;3.67;;;2.30;99.90;;;;;;7420854;19;20384;-84
2021/12/29 04:32:38;;;;;;;3.67;3.38;;;2.20;99.90;;;;;;7416415;19;20332;-85
2021/12/29 04:35:04;;;;;;;3.13;2.92;;;2.10;99.90;;;;;;7421348;19;20369;-82
2021/12/29 04:37:30;;;;;;;3.50;3.20;;;2.20;99.90;;;;;;7423198;19;20332;-87
2021/12/29 04:39:55;;;;;;;4.93;3.53;;;2.20;99.90;;;;;;7426991;19;20304;-86
2021/12/29 04:42:21;;;;;;;3.33;3.03;;;2.20;99.90;;;;;;7423672;19;20348;-84
2021/12/29 04:44:47;;;;;;;4.20;3.13;;;2.20;99.90;;;;;;7425632;19;20323;-86
2021/12/29 04:47:12;;;;;;;3.20;3.00;;;2.20;99.90;;;;;;7427245;19;20344;-83
2021/12/29 04:49:43;;;;;;;3.38;3.08;;;2.20;99.90;;;;;;7428331;19;20324;-88
2021/12/29 04:52:10;;;;;;;2.72;2.53;;;2.30;99.90;;;;;;7427361;19;20383;-85
2021/12/29 04:54:37;;;;;;;3.40;3.10;;;2.30;99.90;;;;;;7426339;19;20305;-86
2021/12/29 04:57:03;;;;;;;4.03;3.25;;;2.30;99.90;;;;;;7426601;19;20707;-87
2021/12/29 04:59:29;;;;;;;3.38;3.08;;;2.30;99.90;;;;;;7424438;19;20312;-88
2021/12/29 05:10:19;;;;;;;3.92;3.58;;;2.30;99.90;;;;;;7353451;19;20348;-80
2021/12/29 05:12:44;;;;;;;6.22;4.75;;;2.40;99.90;;;;;;7394907;19;20346;-81
2021/12/29 05:15:10;;;;;;;3.97;3.40;;;2.30;99.90;;;;;;7404542;19;20347;-79
2021/12/29 05:17:36;;;;;;;5.88;4.00;;;2.40;99.90;;;;;;7409838;19;20301;-80
2021/12/29 05:20:02;;;;;;;4.60;4.10;;;2.40;99.90;;;;;;7391857;19;20329;-81
2021/12/29 05:22:27;;;;;;;5.60;4.07;;;2.40;99.90;;;;;;7409967;19;20394;-79
2021/12/29 05:24:53;;;;;;;5.33;3.57;;;2.40;99.90;;;;;;7407872;19;20337;-81
2021/12/29 05:27:19;;;;;;;4.05;3.70;;;2.40;99.90;;;;;;7417955;19;20319;-79
2021/12/29 05:29:44;;;;;;;5.60;4.73;;;2.40;99.90;;;;;;7396744;19;20301;-80
2021/12/29 05:32:10;;;;;;;5.07;4.40;;;2.40;99.90;;;;;;7410587;19;20312;-80
2021/12/29 05:34:36;;;;;;;4.70;3.80;;;2.50;99.90;;;;;;7401783;19;20296;-80
2021/12/29 05:37:02;;;;;;;3.93;3.53;;;2.50;99.90;;;;;;7410419;19;20320;-82
2021/12/29 05:39:28;;;;;;;4.60;4.03;;;2.50;99.90;;;;;;7406896;19;20341;-83
2021/12/29 05:41:54;;;;;;;3.97;3.55;;;2.50;99.90;;;;;;7410921;19;20381;-82
2021/12/29 05:44:19;;;;;;;5.45;4.60;;;2.50;99.90;;;;;;7410651;19;20305;-82
2021/12/29 05:46:45;;;;;;;5.70;4.30;;;2.40;99.90;;;;;;7409742;19;20374;-81
2021/12/29 05:49:11;;;;;;;4.75;4.30;;;2.60;99.90;;;;;;7421548;19;20309;-87
2021/12/29 05:51:41;;;;;;;6.43;5.57;;;2.40;99.90;;;;;;7414812;19;20332;-89
2021/12/29 05:54:11;;;;;;;4.00;3.60;;;2.40;99.90;;;;;;7359035;19;20336;-81
2021/12/29 05:56:37;;;;;;;4.13;3.72;;;2.40;99.90;;;;;;7400972;19;20328;-80
2021/12/29 05:59:11;;;;;;;4.03;3.63;;;2.40;99.90;;;;;;7401768;19;20325;-82
2021/12/29 06:01:44;;;;;;;4.35;3.33;;;2.40;99.90;;;;;;7401250;19;20373;-82
2021/12/29 06:04:10;;;;;;;3.58;3.28;;;2.50;99.90;;;;;;7423626;19;20336;-81
2021/12/29 06:06:36;;;;;;;3.57;3.23;;;2.50;99.90;;;;;;7417758;19;20317;-81
2021/12/29 06:09:05;;;;;;;4.00;3.60;;;2.60;99.90;;;;;;7418549;19;20362;-79
2021/12/29 06:11:31;;;;;;;6.15;3.50;;;2.50;99.90;;;;;;7422495;19;20323;-81
2021/12/29 06:14:01;;;;;;;3.70;3.40;;;2.50;99.90;;;;;;7417481;19;20355;-80
2021/12/29 06:16:29;;;;;;;3.53;3.13;;;2.50;99.90;;;;;;7411417;19;20641;-80
2021/12/29 06:18:56;;;;;;;3.97;3.67;;;2.60;99.90;;;;;;7401067;19;20396;-80
2021/12/29 06:21:24;;;;;;;4.20;3.30;;;2.60;99.90;;;;;;7410142;19;20309;-81
2021/12/29 06:23:52;;;;;;;3.58;3.00;;;2.60;99.90;;;;;;7407788;19;20688;-81
2021/12/29 06:26:18;;;;;;;3.40;3.10;;;2.50;99.90;;;;;;7405055;19;20335;-80
2021/12/29 06:28:46;;;;;;;3.65;2.90;;;2.60;99.90;;;;;;7388880;19;20336;-80
2021/12/29 06:31:13;;;;;;;5.75;3.65;;;2.60;99.90;;;;;;7389244;19;20335;-80
2021/12/29 06:33:40;;;;;;;4.22;3.83;;;2.60;99.90;;;;;;7407705;19;20317;-80
2021/12/29 06:36:09;;;;;;;5.72;3.88;;;2.70;99.90;;;;;;7410459;19;20357;-82
2021/12/29 06:38:37;;;;;;;4.13;3.73;;;2.60;99.90;;;;;;7413588;19;20333;-79
2021/12/29 06:41:05;;;;;;;4.18;3.70;;;2.60;99.90;;;;;;7410457;19;20316;-79
2021/12/29 06:43:33;;;;;;;4.25;3.58;;;2.70;99.90;;;;;;7387868;19;20345;-80
2021/12/29 06:46:03;;;;;;;5.00;3.95;;;2.80;99.90;;;;;;7378022;19;20329;-80
2021/12/29 06:48:35;;;;;;;4.80;4.30;;;2.70;99.90;;;;;;7406764;19;20329;-79
2021/12/29 06:51:01;;;;;;;4.53;4.00;;;2.70;99.90;;;;;;7408121;19;20333;-80
2021/12/29 06:53:29;;;;;;;5.13;4.22;;;2.70;99.90;;;;;;7406472;19;21077;-81
2021/12/29 06:55:56;;;;;;;4.10;3.70;;;2.70;99.90;;;;;;7411403;19;20320;-81
2021/12/29 06:58:25;;;;;;;4.07;3.67;;;2.80;99.90;;;;;;7412456;19;20444;-82
2021/12/29 07:00:54;;;;;;;6.63;5.57;;;2.80;99.90;;;;;;7413246;19;20335;-81
2021/12/29 07:03:23;;;;;;;5.20;4.63;;;2.50;99.90;;;;;;7416812;19;20328;-80
2021/12/29 07:05:54;;;;;;;4.13;3.65;;;2.40;99.90;;;;;;7397094;19;20320;-80
2021/12/29 07:08:22;;;;;;;3.90;3.50;;;2.50;99.90;;;;;;7414158;19;20379;-80
2021/12/29 07:11:06;;;;;;;4.77;3.60;;;2.50;99.90;;;;;;7398230;19;20383;-80
2021/12/29 07:13:38;;;;;;;4.20;3.70;;;2.60;99.90;;;;;;7388842;19;20368;-80
2021/12/29 07:16:04;;;;;;;4.22;3.35;;;2.70;99.90;;;;;;7406018;19;20332;-81
2021/12/29 07:18:39;;;;;;;3.70;3.40;;;2.80;99.90;;;;;;7395460;19;21251;31
2021/12/29 07:21:23;;;;;;;3.40;3.10;;;2.80;99.90;;;;;;7430016;19;20371;-81
2021/12/29 07:23:57;;;;;;;3.67;3.38;;;2.80;99.90;;;;;;7411763;19;20365;-82
2021/12/29 07:26:26;;;;;;;4.25;3.38;;;2.80;99.90;;;;;;7431110;19;20352;-80
2021/12/29 07:28:56;;;;;;;4.53;4.13;;;2.80;99.90;;;;;;7428570;19;20333;-80
2021/12/29 07:31:27;;;;;;;3.63;3.33;;;2.80;99.90;;;;;;7424619;19;20404;-81
2021/12/29 07:34:07;;;;;;;4.63;3.72;;;2.90;99.90;;;;;;7422351;19;20344;-79
2021/12/29 07:36:38;;;;;;;4.37;3.97;;;2.90;99.90;;;;;;7422205;19;20381;-81
2021/12/29 07:42:16;;;;;;;3.65;3.33;;;2.90;99.90;;;;;;7400682;19;20668;-82
2021/12/29 07:44:50;;;;;;;3.60;3.33;;;3.00;99.90;;;;;;7422987;19;20323;-81
2021/12/29 07:47:28;;;;;;;4.57;3.53;;;3.10;99.90;;;;;;7300383;19;2004413;-79
2021/12/29 07:49:58;;;;;;;4.30;3.80;;;2.90;99.90;;;;;;7415572;19;20311;-81
2021/12/29 07:52:35;;;;;;;4.40;3.97;;;3.00;99.90;;;;;;7420201;19;20384;-81
2021/12/29 07:55:03;;;;;;;4.55;3.63;;;2.90;99.90;;;;;;7381526;19;20353;-78
2021/12/29 07:57:29;;;;;;;4.35;3.67;;;2.90;99.90;;;;;;7414363;19;20332;-78
2021/12/29 08:00:54;;;;;;;4.93;3.97;;;3.00;99.90;;;;;;7421305;19;20337;-81
2021/12/29 08:04:01;;;;;;;3.47;3.17;;;2.90;99.90;;;;;;7423166;19;20341;-80
2021/12/29 08:06:53;;;;;;;4.65;4.15;;;3.00;99.90;;;;;;7253408;19;2003599;-81
2021/12/29 08:09:34;;;;;;;3.78;3.42;;;3.10;99.90;;;;;;7370648;19;20321;-81
2021/12/29 08:12:01;;;;;;;3.80;3.38;;;3.00;99.90;;;;;;7231915;19;2004238;-80
2021/12/29 08:14:31;;;;;;;4.30;3.60;;;3.10;99.90;;;;;;7380238;19;20340;-81
2021/12/29 08:16:57;;;;;;;4.10;3.30;;;3.10;99.90;;;;;;7409875;19;20704;-80
2021/12/29 08:19:24;;;;;;;3.95;3.33;;;3.20;99.90;;;;;;7402905;19;20374;-80
2021/12/29 08:21:52;;;;;;;3.67;3.38;;;3.20;99.90;;;;;;7388119;19;20308;-80
2021/12/29 08:24:23;;;;;;;3.85;3.55;;;3.30;99.90;;;;;;7406344;19;20335;-81
2021/12/29 08:26:51;;;;;;;4.65;3.63;;;3.20;99.90;;;;;;7410850;19;20316;-81
2021/12/29 08:29:18;;;;;;;4.32;3.85;;;3.30;99.90;;;;;;7410693;19;20346;-80
2021/12/29 08:31:47;;;;;;;3.92;3.53;;;3.20;99.90;;;;;;7384779;19;20348;-81
2021/12/29 08:34:15;;;;;;;3.75;3.38;;;3.30;99.90;;;;;;7387763;19;20917;-79
2021/12/29 08:36:41;;;;;;;3.58;3.28;;;3.30;99.90;;;;;;7411624;19;20316;-82
2021/12/29 08:39:09;;;;;;;3.60;3.30;;;3.30;99.90;;;;;;7408272;19;20324;-79
2021/12/29 08:41:52;;;;;;;4.75;3.90;;;3.40;99.90;;;;;;7397209;19;20309;-79
2021/12/29 09:02:39;;;;;;;5.05;4.18;;;3.70;99.90;;;;;;7389555;19;20368;-82
2021/12/29 09:05:10;;;;;;;5.05;4.55;;;3.70;99.90;;;;;;7423917;19;20321;-80
2021/12/29 09:11:22;;;;;;;4.80;4.40;;;3.80;99.90;;;;;;7355961;19;20397;-83
2021/12/29 09:54:17;;;;;;;4.93;3.63;;;4.50;99.90;;;;;;7391195;19;20305;-78
2021/12/29 09:56:42;;;;;;;4.78;3.58;;;4.50;99.90;;;;;;7394042;19;20321;-78
2021/12/29 10:02:11;;;;;;;3.97;3.22;;;4.60;99.90;;;;;;7419537;19;20847;-80
2021/12/29 10:04:37;;;;;;;4.88;4.18;;;4.70;99.90;;;;;;7416742;19;20354;-79
2021/12/29 10:07:16;;;;;;;4.63;4.22;;;4.90;99.90;;;;;;7419655;19;20324;-78
2021/12/29 10:09:42;;;;;;;4.83;4.23;;;5.00;99.90;;;;;;7420843;19;20324;-80
2021/12/29 10:12:10;;;;;;;4.03;3.67;;;5.00;99.90;;;;;;7418749;19;20372;-81
2021/12/29 10:14:36;;;;;;;3.88;3.50;;;5.00;99.90;;;;;;7417878;19;20329;-79
2021/12/29 10:17:09;;;;;;;4.90;4.40;;;5.00;99.90;;;;;;7419284;19;20309;-79
2021/12/29 10:19:36;;;;;;;4.93;4.00;;;5.00;99.90;;;;;;7415405;19;20364;-78
2021/12/29 10:22:02;;;;;;;4.35;3.70;;;5.00;99.90;;;;;;7417030;19;20377;-80
2021/12/29 10:24:28;;;;;;;4.33;3.77;;;5.10;99.90;;;;;;7424037;19;20325;-78
2021/12/29 10:26:55;;;;;;;6.97;5.30;;;5.10;99.90;;;;;;7426524;19;20343;-80
2021/12/29 10:29:22;;;;;;;8.98;6.70;;;5.20;99.90;;;;;;7424328;19;20332;-80
2021/12/29 10:31:52;;;;;;;6.55;5.53;;;5.20;99.90;;;;;;7425434;19;20333;-80
2021/12/29 10:34:36;;;;;;;4.70;4.30;;;5.20;99.90;;;;;;7421782;19;20329;-80
2021/12/29 10:37:05;;;;;;;6.05;3.38;;;5.30;99.90;;;;;;7424624;19;20340;-80
2021/12/29 10:39:39;;;;;;;5.70;4.40;;;5.40;99.90;;;;;;7424026;19;20324;-78
2021/12/29 10:42:10;;;;;;;6.72;5.13;;;5.50;99.90;;;;;;7401771;19;20344;-80
2021/12/29 10:47:50;;;;;;;7.53;4.57;;;5.70;99.90;;;;;;7418539;19;20379;-79
2021/12/29 10:56:43;;;;;;;3.58;3.17;;;5.80;99.90;;;;;;7371608;19;20387;-80
2021/12/29 11:30:44;;;;;;;3.70;3.35;;;7.90;99.90;;;;;;7400096;19;20393;-80
2021/12/29 11:36:04;;;;;;;10.23;4.93;;;7.80;99.90;;;;;;7371567;19;20359;-81
2021/12/29 11:41:42;;;;;;;3.65;3.20;;;7.60;99.90;;;;;;7404019;19;20340;-80
2021/12/29 11:44:15;;;;;;;3.57;3.27;;;7.60;99.90;;;;;;7423036;19;20332;-80
2021/12/29 11:47:05;;;;;;;3.92;3.53;;;7.50;99.90;;;;;;7421888;19;20337;-81
2021/12/29 11:52:59;;;;;;;3.53;3.22;;;7.40;99.90;;;;;;7422744;19;20345;-80
2021/12/29 11:55:30;;;;;;;4.30;3.30;;;7.40;99.90;;;;;;7418769;19;20356;-80
2021/12/29 11:58:18;;;;;;;4.38;3.50;;;7.40;99.90;;;;;;7409628;19;20333;-82
2021/12/29 12:00:48;;;;;;;5.95;3.35;;;7.30;99.90;;;;;;7427442;19;20380;-79
2021/12/29 12:03:22;;;;;;;3.78;3.47;;;7.40;99.90;;;;;;7372183;19;20361;-80
2021/12/29 12:05:54;;;;;;;5.18;3.47;;;7.30;99.90;;;;;;7423727;19;20340;-81
2021/12/29 12:08:23;;;;;;;8.02;3.65;;;7.20;99.90;;;;;;7373512;19;20340;-80
2021/12/29 12:10:50;;;;;;;3.40;3.10;;;7.10;99.90;;;;;;7422247;19;20341;-79
2021/12/29 12:17:00;;;;;;;4.22;3.40;;;7.20;99.90;;;;;;7340916;19;20356;-80
2021/12/29 12:20:03;;;;;;;3.77;3.10;;;7.20;99.90;;;;;;7318892;19;2004341;-79
2021/12/29 12:22:46;;;;;;;4.00;3.47;;;7.20;99.90;;;;;;7424053;19;20352;-80
2021/12/29 12:25:15;;;;;;;4.13;3.45;;;7.20;99.90;;;;;;7405099;19;20349;-79
2021/12/29 12:35:18;;;;;;;4.20;3.70;;;7.20;99.90;;;;;;7356128;19;20379;-82
2021/12/29 12:49:31;;;;;;;4.45;2.90;;;7.10;99.90;;;;;;7419467;19;20421;-80
2021/12/29 12:52:23;;;;;;;3.27;2.50;;;7.10;99.90;;;;;;7398616;19;20374;-82
2021/12/29 12:55:07;;;;;;;4.57;3.70;;;7.10;99.90;;;;;;7314865;19;2004399;-80
2021/12/29 12:58:11;;;;;;;4.75;3.10;;;7.10;99.90;;;;;;7415615;19;20345;-81
2021/12/29 13:01:23;;;;;;;5.68;3.05;;;7.10;99.90;;;;;;7435480;19;20384;-81
2021/12/29 13:06:41;;;;;;;3.07;2.80;;;7.10;99.90;;;;;;7389013;19;20337;-80
2021/12/29 13:13:00;;;;;;;4.53;3.20;;;7.00;99.90;;;;;;7358525;19;20303;-82
2021/12/29 13:15:40;;;;;;;7.78;4.85;;;7.00;99.90;;;;;;7197906;19;2004316;-81
2021/12/29 13:18:33;;;;;;;11.90;8.33;;;7.00;99.90;;;;;;7427167;19;20391;-80
2021/12/29 13:29:36;;;;;;;4.50;3.60;;;6.90;99.90;;;;;;7344353;19;20300;-80
2021/12/29 14:08:36;;;;;;;4.00;3.60;;;6.40;99.90;;;;;;7340860;19;20375;-79
2021/12/29 14:34:52;;;;;;;5.60;4.88;;;6.10;99.90;;;;;;7293673;19;21324;-80
2021/12/29 16:29:59;;;;;;;5.90;4.88;;;5.80;99.90;;;;;;7330348;19;20357;-82
2021/12/29 16:32:38;;;;;;;3.97;3.60;;;5.80;99.90;;;;;;7379260;19;20324;-83
2021/12/29 16:50:13;;;;;;;3.90;3.55;;;5.70;99.90;;;;;;7393848;19;20373;-80
2021/12/29 17:01:32;;;;;;;4.95;4.18;;;5.60;99.90;;;;;;7355850;19;20349;-79
2021/12/29 17:04:12;;;;;;;6.50;5.55;;;5.60;99.90;;;;;;7403562;19;20305;-80
2021/12/29 17:06:43;;;;;;;7.57;5.40;;;5.50;99.90;;;;;;7421103;19;20318;-80
2021/12/29 17:09:21;;;;;;;5.07;4.57;;;5.70;99.90;;;;;;7371470;19;20372;-79
2021/12/29 17:12:13;;;;;;;6.45;5.38;;;5.80;99.90;;;;;;7391983;19;20353;-80
2021/12/29 17:41:14;;;;;;;5.38;4.88;;;5.70;99.90;;;;;;7409741;19;20377;-82
2021/12/29 17:45:09;;;;;;;5.78;5.25;;;5.60;99.90;;;;;;7437396;19;20320;-81
2021/12/29 20:30:34;;;;;;;5.28;4.53;;;5.20;99.90;;;;;;7405336;19;20352;-80
